sensor_id;sensor_type;location;lat;lon;timestamp;P1;durP1;ratioP1;P2;durP2;ratioP2
934;SDS011;454;53.254;10.400;2023-05-20T04:00:28;0.82;;;0.30;;
934;SDS011;454;53.254;10.400;2023-05-20T04:02:55;1.40;;;1.40;;
934;SDS011;454;53.254;10.400;2023-05-20T04:05:22;4.00;;;0.55;;
934;SDS011;454;53.254;10.400;2023-05-20T04:07:49;0.50;;;0.50;;
934;SDS011;454;53.254;10.400;2023-05-20T04:10:17;0.38;;;0.38;;
934;SDS011;454;53.254;10.400;2023-05-20T04:12:44;0.52;;;0.52;;
934;SDS011;454;53.254;10.400;2023-05-20T04:17:43;0.68;;;0.68;;
934;SDS011;454;53.254;10.400;2023-05-20T04:20:12;0.47;;;0.40;;
934;SDS011;454;53.254;10.400;2023-05-20T04:22:39;0.50;;;0.50;;
934;SDS011;454;53.254;10.400;2023-05-20T04:25:06;0.60;;;0.60;;
934;SDS011;454;53.254;10.400;2023-05-20T04:27:33;0.95;;;0.63;;
934;SDS011;454;53.254;10.400;2023-05-20T04:30:01;0.95;;;0.63;;
934;SDS011;454;53.254;10.400;2023-05-20T04:32:28;0.30;;;0.30;;
934;SDS011;454;53.254;10.400;2023-05-20T04:34:57;0.82;;;0.82;;
934;SDS011;454;53.254;10.400;2023-05-20T04:37:24;0.43;;;0.43;;
934;SDS011;454;53.254;10.400;2023-05-20T04:39:51;0.88;;;0.45;;
934;SDS011;454;53.254;10.400;2023-05-20T04:42:17;1.00;;;0.57;;
934;SDS011;454;53.254;10.400;2023-05-20T04:44:46;0.70;;;0.70;;
934;SDS011;454;53.254;10.400;2023-05-20T04:47:13;1.15;;;0.70;;
934;SDS011;454;53.254;10.400;2023-05-20T04:49:40;0.60;;;0.60;;
934;SDS011;454;53.254;10.400;2023-05-20T04:52:08;0.60;;;0.47;;
934;SDS011;454;53.254;10.400;2023-05-20T04:54:35;0.43;;;0.43;;
934;SDS011;454;53.254;10.400;2023-05-20T04:57:02;0.95;;;0.45;;
934;SDS011;454;53.254;10.400;2023-05-20T04:59:29;0.60;;;0.60;;
934;SDS011;454;53.254;10.400;2023-05-20T05:01:56;0.57;;;0.50;;
934;SDS011;454;53.254;10.400;2023-05-20T05:04:22;1.00;;;1.00;;
934;SDS011;454;53.254;10.400;2023-05-20T05:06:49;0.20;;;0.20;;
934;SDS011;454;53.254;10.400;2023-05-20T05:09:17;0.60;;;0.53;;
934;SDS011;454;53.254;10.400;2023-05-20T05:11:44;0.43;;;0.43;;
934;SDS011;454;53.254;10.400;2023-05-20T05:14:11;0.47;;;0.47;;
934;SDS011;454;53.254;10.400;2023-05-20T05:16:37;0.40;;;0.40;;
934;SDS011;454;53.254;10.400;2023-05-20T05:19:04;0.90;;;0.90;;
934;SDS011;454;53.254;10.400;2023-05-20T05:21:31;0.63;;;0.63;;
934;SDS011;454;53.254;10.400;2023-05-20T05:23:58;0.47;;;0.47;;
934;SDS011;454;53.254;10.400;2023-05-20T05:26:26;0.87;;;0.40;;
934;SDS011;454;53.254;10.400;2023-05-20T05:28:53;0.63;;;0.50;;
934;SDS011;454;53.254;10.400;2023-05-20T05:31:20;0.40;;;0.40;;
934;SDS011;454;53.254;10.400;2023-05-20T05:33:47;1.00;;;0.77;;
934;SDS011;454;53.254;10.400;2023-05-20T05:36:14;0.30;;;0.30;;
934;SDS011;454;53.254;10.400;2023-05-20T05:38:40;0.60;;;0.60;;
934;SDS011;454;53.254;10.400;2023-05-20T05:41:08;0.37;;;0.37;;
934;SDS011;454;53.254;10.400;2023-05-20T05:43:36;0.50;;;0.50;;
934;SDS011;454;53.254;10.400;2023-05-20T05:46:03;0.40;;;0.40;;
934;SDS011;454;53.254;10.400;2023-05-20T05:48:30;0.63;;;0.40;;
934;SDS011;454;53.254;10.400;2023-05-20T05:50:57;0.80;;;0.80;;
934;SDS011;454;53.254;10.400;2023-05-20T05:53:24;0.60;;;0.60;;
934;SDS011;454;53.254;10.400;2023-05-20T05:55:50;0.40;;;0.33;;
934;SDS011;454;53.254;10.400;2023-05-20T05:58:17;0.40;;;0.40;;
934;SDS011;454;53.254;10.400;2023-05-20T06:00:45;2.23;;;0.70;;
934;SDS011;454;53.254;10.400;2023-05-20T06:03:12;0.70;;;0.70;;
934;SDS011;454;53.254;10.400;2023-05-20T06:05:39;0.70;;;0.70;;
934;SDS011;454;53.254;10.400;2023-05-20T06:08:05;0.77;;;0.77;;
934;SDS011;454;53.254;10.400;2023-05-20T06:10:32;0.40;;;0.40;;
934;SDS011;454;53.254;10.400;2023-05-20T06:12:59;0.50;;;0.50;;
934;SDS011;454;53.254;10.400;2023-05-20T06:15:26;0.63;;;0.63;;
934;SDS011;454;53.254;10.400;2023-05-20T06:17:54;0.87;;;0.87;;
934;SDS011;454;53.254;10.400;2023-05-20T06:20:21;0.80;;;0.80;;
934;SDS011;454;53.254;10.400;2023-05-20T06:22:48;0.97;;;0.50;;
934;SDS011;454;53.254;10.400;2023-05-20T06:25:14;0.97;;;0.97;;
934;SDS011;454;53.254;10.400;2023-05-20T06:27:41;2.20;;;0.67;;
934;SDS011;454;53.254;10.400;2023-05-20T06:30:08;0.57;;;0.57;;
934;SDS011;454;53.254;10.400;2023-05-20T06:32:35;0.60;;;0.60;;
934;SDS011;454;53.254;10.400;2023-05-20T06:35:04;0.70;;;0.70;;
934;SDS011;454;53.254;10.400;2023-05-20T06:37:32;0.67;;;0.50;;
934;SDS011;454;53.254;10.400;2023-05-20T06:39:59;0.60;;;0.60;;
934;SDS011;454;53.254;10.400;2023-05-20T06:42:26;0.63;;;0.63;;
934;SDS011;454;53.254;10.400;2023-05-20T06:44:52;1.03;;;0.80;;
934;SDS011;454;53.254;10.400;2023-05-20T06:47:19;1.13;;;1.13;;
934;SDS011;454;53.254;10.400;2023-05-20T06:49:46;0.70;;;0.70;;
934;SDS011;454;53.254;10.400;2023-05-20T06:52:14;0.80;;;0.70;;
934;SDS011;454;53.254;10.400;2023-05-20T06:54:41;0.90;;;0.90;;
934;SDS011;454;53.254;10.400;2023-05-20T06:57:08;0.80;;;0.80;;
934;SDS011;454;53.254;10.400;2023-05-20T06:59:35;0.73;;;0.50;;
934;SDS011;454;53.254;10.400;2023-05-20T07:02:02;0.70;;;0.70;;
934;SDS011;454;53.254;10.400;2023-05-20T07:04:30;0.50;;;0.50;;
934;SDS011;454;53.254;10.400;2023-05-20T07:06:56;0.60;;;0.60;;
934;SDS011;454;53.254;10.400;2023-05-20T07:09:24;0.60;;;0.60;;
934;SDS011;454;53.254;10.400;2023-05-20T07:11:52;0.60;;;0.60;;
934;SDS011;454;53.254;10.400;2023-05-20T07:14:18;0.70;;;0.70;;
934;SDS011;454;53.254;10.400;2023-05-20T07:16:45;0.80;;;0.80;;
934;SDS011;454;53.254;10.400;2023-05-20T07:19:12;0.90;;;0.90;;
934;SDS011;454;53.254;10.400;2023-05-20T07:21:39;1.27;;;0.80;;
934;SDS011;454;53.254;10.400;2023-05-20T07:24:06;0.40;;;0.40;;
934;SDS011;454;53.254;10.400;2023-05-20T07:26:34;0.67;;;0.67;;
934;SDS011;454;53.254;10.400;2023-05-20T07:29:01;0.83;;;0.50;;
934;SDS011;454;53.254;10.400;2023-05-20T07:31:28;0.67;;;0.67;;
934;SDS011;454;53.254;10.400;2023-05-20T07:33:55;1.10;;;1.10;;
934;SDS011;454;53.254;10.400;2023-05-20T07:36:22;0.67;;;0.57;;
934;SDS011;454;53.254;10.400;2023-05-20T07:38:49;0.80;;;0.80;;
934;SDS011;454;53.254;10.400;2023-05-20T07:41:16;0.80;;;0.80;;
934;SDS011;454;53.254;10.400;2023-05-20T07:43:44;0.60;;;0.60;;
934;SDS011;454;53.254;10.400;2023-05-20T07:46:11;1.13;;;0.87;;
934;SDS011;454;53.254;10.400;2023-05-20T07:48:37;0.53;;;0.53;;
934;SDS011;454;53.254;10.400;2023-05-20T07:51:04;0.60;;;0.60;;
934;SDS011;454;53.254;10.400;2023-05-20T07:53:31;1.17;;;1.00;;
934;SDS011;454;53.254;10.400;2023-05-20T07:55:58;1.00;;;0.70;;
934;SDS011;454;53.254;10.400;2023-05-20T07:58:26;1.03;;;1.03;;
934;SDS011;454;53.254;10.400;2023-05-20T08:00:54;0.50;;;0.43;;
934;SDS011;454;53.254;10.400;2023-05-20T08:03:21;0.53;;;0.53;;
934;SDS011;454;53.254;10.400;2023-05-20T08:05:48;0.50;;;0.50;;
934;SDS011;454;53.254;10.400;2023-05-20T08:08:15;0.60;;;0.60;;
934;SDS011;454;53.254;10.400;2023-05-20T08:10:42;0.70;;;0.70;;
934;SDS011;454;53.254;10.400;2023-05-20T08:13:08;0.70;;;0.70;;
934;SDS011;454;53.254;10.400;2023-05-20T08:15:35;0.50;;;0.50;;
934;SDS011;454;53.254;10.400;2023-05-20T08:18:03;0.50;;;0.50;;
934;SDS011;454;53.254;10.400;2023-05-20T08:20:30;0.70;;;0.70;;
934;SDS011;454;53.254;10.400;2023-05-20T08:22:56;0.47;;;0.47;;
934;SDS011;454;53.254;10.400;2023-05-20T08:25:23;2.47;;;1.20;;
934;SDS011;454;53.254;10.400;2023-05-20T08:27:50;1.63;;;1.10;;
934;SDS011;454;53.254;10.400;2023-05-20T08:30:17;0.73;;;0.73;;
934;SDS011;454;53.254;10.400;2023-05-20T08:32:43;0.40;;;0.40;;
934;SDS011;454;53.254;10.400;2023-05-20T08:35:11;1.40;;;0.73;;
934;SDS011;454;53.254;10.400;2023-05-20T08:37:38;0.80;;;0.67;;
934;SDS011;454;53.254;10.400;2023-05-20T08:40:05;2.33;;;0.50;;
934;SDS011;454;53.254;10.400;2023-05-20T08:42:33;0.63;;;0.63;;
934;SDS011;454;53.254;10.400;2023-05-20T08:45:00;0.60;;;0.60;;
934;SDS011;454;53.254;10.400;2023-05-20T08:47:27;0.73;;;0.73;;
934;SDS011;454;53.254;10.400;2023-05-20T08:49:54;0.70;;;0.70;;
934;SDS011;454;53.254;10.400;2023-05-20T08:52:22;0.80;;;0.80;;
934;SDS011;454;53.254;10.400;2023-05-20T08:54:50;0.40;;;0.40;;
934;SDS011;454;53.254;10.400;2023-05-20T08:57:17;0.50;;;0.50;;
934;SDS011;454;53.254;10.400;2023-05-20T08:59:44;0.90;;;0.90;;
934;SDS011;454;53.254;10.400;2023-05-20T09:02:12;0.70;;;0.50;;
934;SDS011;454;53.254;10.400;2023-05-20T09:04:38;0.67;;;0.67;;
934;SDS011;454;53.254;10.400;2023-05-20T09:07:06;0.70;;;0.70;;
934;SDS011;454;53.254;10.400;2023-05-20T09:09:34;1.00;;;1.00;;
934;SDS011;454;53.254;10.400;2023-05-20T09:12:01;0.40;;;0.40;;
934;SDS011;454;53.254;10.400;2023-05-20T09:14:28;0.57;;;0.57;;
934;SDS011;454;53.254;10.400;2023-05-20T09:16:55;0.43;;;0.43;;
934;SDS011;454;53.254;10.400;2023-05-20T09:19:22;0.87;;;0.70;;
934;SDS011;454;53.254;10.400;2023-05-20T09:21:49;1.80;;;0.40;;
934;SDS011;454;53.254;10.400;2023-05-20T09:24:19;0.87;;;0.87;;
934;SDS011;454;53.254;10.400;2023-05-20T09:26:49;0.40;;;0.40;;
934;SDS011;454;53.254;10.400;2023-05-20T09:29:16;1.20;;;0.70;;
934;SDS011;454;53.254;10.400;2023-05-20T09:31:43;0.70;;;0.70;;
934;SDS011;454;53.254;10.400;2023-05-20T09:34:10;1.80;;;0.60;;
934;SDS011;454;53.254;10.400;2023-05-20T09:36:38;0.90;;;0.77;;
934;SDS011;454;53.254;10.400;2023-05-20T09:39:05;0.33;;;0.33;;
934;SDS011;454;53.254;10.400;2023-05-20T09:41:37;5.03;;;0.80;;
934;SDS011;454;53.254;10.400;2023-05-20T09:44:10;1.10;;;1.00;;
934;SDS011;454;53.254;10.400;2023-05-20T09:46:37;1.90;;;0.80;;
934;SDS011;454;53.254;10.400;2023-05-20T09:49:06;0.97;;;0.63;;
934;SDS011;454;53.254;10.400;2023-05-20T09:51:33;1.00;;;0.90;;
934;SDS011;454;53.254;10.400;2023-05-20T09:54:00;0.77;;;0.77;;
934;SDS011;454;53.254;10.400;2023-05-20T09:56:29;1.20;;;1.10;;
934;SDS011;454;53.254;10.400;2023-05-20T09:58:57;0.60;;;0.60;;
934;SDS011;454;53.254;10.400;2023-05-20T10:01:26;0.60;;;0.60;;
934;SDS011;454;53.254;10.400;2023-05-20T10:03:53;0.47;;;0.47;;
934;SDS011;454;53.254;10.400;2023-05-20T10:06:28;0.50;;;0.50;;
934;SDS011;454;53.254;10.400;2023-05-20T10:12:04;0.40;;;0.40;;
934;SDS011;454;53.254;10.400;2023-05-20T10:14:42;0.40;;;0.40;;
934;SDS011;454;53.254;10.400;2023-05-20T10:17:18;0.60;;;0.60;;
934;SDS011;454;53.254;10.400;2023-05-20T10:19:56;1.80;;;0.67;;
934;SDS011;454;53.254;10.400;2023-05-20T10:22:27;0.63;;;0.63;;
934;SDS011;454;53.254;10.400;2023-05-20T10:24:59;0.73;;;0.57;;
934;SDS011;454;53.254;10.400;2023-05-20T10:27:40;0.67;;;0.67;;
934;SDS011;454;53.254;10.400;2023-05-20T10:30:14;1.43;;;1.30;;
934;SDS011;454;53.254;10.400;2023-05-20T10:32:52;0.87;;;0.87;;
934;SDS011;454;53.254;10.400;2023-05-20T10:35:21;0.70;;;0.70;;
934;SDS011;454;53.254;10.400;2023-05-20T10:37:51;0.30;;;0.30;;
934;SDS011;454;53.254;10.400;2023-05-20T10:40:19;0.77;;;0.77;;
934;SDS011;454;53.254;10.400;2023-05-20T10:42:47;2.30;;;0.70;;
934;SDS011;454;53.254;10.400;2023-05-20T10:45:23;0.70;;;0.70;;
934;SDS011;454;53.254;10.400;2023-05-20T10:47:55;0.83;;;0.83;;
934;SDS011;454;53.254;10.400;2023-05-20T10:50:26;1.07;;;1.07;;
934;SDS011;454;53.254;10.400;2023-05-20T10:52:53;0.50;;;0.50;;
934;SDS011;454;53.254;10.400;2023-05-20T10:55:21;1.07;;;1.07;;
934;SDS011;454;53.254;10.400;2023-05-20T10:57:48;1.00;;;1.00;;
934;SDS011;454;53.254;10.400;2023-05-20T11:00:16;2.30;;;0.93;;
934;SDS011;454;53.254;10.400;2023-05-20T11:02:45;0.60;;;0.60;;
934;SDS011;454;53.254;10.400;2023-05-20T11:05:15;0.40;;;0.40;;
934;SDS011;454;53.254;10.400;2023-05-20T11:07:42;2.40;;;0.73;;
934;SDS011;454;53.254;10.400;2023-05-20T11:10:09;0.60;;;0.60;;
934;SDS011;454;53.254;10.400;2023-05-20T11:12:36;0.83;;;0.83;;
934;SDS011;454;53.254;10.400;2023-05-20T11:15:04;0.93;;;0.50;;
934;SDS011;454;53.254;10.400;2023-05-20T11:17:32;0.53;;;0.53;;
934;SDS011;454;53.254;10.400;2023-05-20T11:19:59;1.40;;;1.30;;
934;SDS011;454;53.254;10.400;2023-05-20T11:22:27;0.70;;;0.70;;
934;SDS011;454;53.254;10.400;2023-05-20T11:24:54;1.10;;;1.07;;
934;SDS011;454;53.254;10.400;2023-05-20T11:27:21;1.27;;;1.00;;
934;SDS011;454;53.254;10.400;2023-05-20T11:29:48;0.77;;;0.77;;
934;SDS011;454;53.254;10.400;2023-05-20T11:32:18;0.83;;;0.83;;
934;SDS011;454;53.254;10.400;2023-05-20T11:34:45;0.50;;;0.50;;
934;SDS011;454;53.254;10.400;2023-05-20T11:37:16;0.97;;;0.97;;
934;SDS011;454;53.254;10.400;2023-05-20T11:39:47;1.00;;;1.00;;
934;SDS011;454;53.254;10.400;2023-05-20T11:42:14;1.70;;;0.87;;
934;SDS011;454;53.254;10.400;2023-05-20T11:44:42;1.20;;;1.10;;
934;SDS011;454;53.254;10.400;2023-05-20T11:47:09;1.20;;;1.20;;
934;SDS011;454;53.254;10.400;2023-05-20T11:49:39;0.63;;;0.63;;
934;SDS011;454;53.254;10.400;2023-05-20T11:52:07;0.73;;;0.73;;
934;SDS011;454;53.254;10.400;2023-05-20T11:54:35;1.03;;;1.03;;
934;SDS011;454;53.254;10.400;2023-05-20T11:57:03;1.23;;;1.23;;
934;SDS011;454;53.254;10.400;2023-05-20T11:59:30;0.77;;;0.77;;
934;SDS011;454;53.254;10.400;2023-05-20T12:01:58;0.80;;;0.80;;
934;SDS011;454;53.254;10.400;2023-05-20T12:04:24;0.80;;;0.80;;
934;SDS011;454;53.254;10.400;2023-05-20T12:06:51;0.87;;;0.87;;
934;SDS011;454;53.254;10.400;2023-05-20T12:09:19;4.03;;;1.43;;
934;SDS011;454;53.254;10.400;2023-05-20T12:11:46;1.10;;;1.10;;
934;SDS011;454;53.254;10.400;2023-05-20T12:14:14;1.43;;;1.27;;
934;SDS011;454;53.254;10.400;2023-05-20T12:16:41;1.40;;;1.30;;
934;SDS011;454;53.254;10.400;2023-05-20T12:19:08;1.07;;;1.07;;
934;SDS011;454;53.254;10.400;2023-05-20T12:21:34;1.07;;;1.07;;
934;SDS011;454;53.254;10.400;2023-05-20T12:24:01;2.43;;;1.23;;
934;SDS011;454;53.254;10.400;2023-05-20T12:26:30;1.30;;;1.30;;
934;SDS011;454;53.254;10.400;2023-05-20T12:28:59;0.90;;;0.90;;
934;SDS011;454;53.254;10.400;2023-05-20T12:31:27;1.50;;;1.50;;
934;SDS011;454;53.254;10.400;2023-05-20T12:33:54;1.33;;;1.33;;
934;SDS011;454;53.254;10.400;2023-05-20T12:36:21;1.80;;;0.90;;
934;SDS011;454;53.254;10.400;2023-05-20T12:38:47;0.97;;;0.97;;
934;SDS011;454;53.254;10.400;2023-05-20T12:41:14;3.70;;;1.17;;
934;SDS011;454;53.254;10.400;2023-05-20T12:43:41;1.80;;;1.80;;
934;SDS011;454;53.254;10.400;2023-05-20T12:46:08;1.03;;;1.03;;
934;SDS011;454;53.254;10.400;2023-05-20T12:48:36;1.30;;;1.30;;
934;SDS011;454;53.254;10.400;2023-05-20T12:51:03;1.03;;;1.03;;
934;SDS011;454;53.254;10.400;2023-05-20T12:53:30;1.33;;;1.23;;
934;SDS011;454;53.254;10.400;2023-05-20T12:55:57;1.13;;;1.10;;
934;SDS011;454;53.254;10.400;2023-05-20T12:58:24;1.03;;;1.03;;
934;SDS011;454;53.254;10.400;2023-05-20T13:00:50;0.93;;;0.93;;
934;SDS011;454;53.254;10.400;2023-05-20T13:03:17;1.27;;;1.23;;
934;SDS011;454;53.254;10.400;2023-05-20T13:05:46;1.80;;;1.23;;
934;SDS011;454;53.254;10.400;2023-05-20T13:08:12;1.17;;;1.17;;
934;SDS011;454;53.254;10.400;2023-05-20T13:10:39;1.13;;;1.03;;
934;SDS011;454;53.254;10.400;2023-05-20T13:13:06;1.47;;;1.27;;
934;SDS011;454;53.254;10.400;2023-05-20T13:15:33;1.23;;;1.23;;
934;SDS011;454;53.254;10.400;2023-05-20T13:18:00;1.20;;;1.20;;
934;SDS011;454;53.254;10.400;2023-05-20T13:20:29;1.47;;;1.23;;
934;SDS011;454;53.254;10.400;2023-05-20T13:22:57;0.93;;;0.93;;
934;SDS011;454;53.254;10.400;2023-05-20T13:25:25;0.70;;;0.70;;
934;SDS011;454;53.254;10.400;2023-05-20T13:27:51;1.47;;;1.47;;
934;SDS011;454;53.254;10.400;2023-05-20T13:30:18;1.40;;;1.37;;
934;SDS011;454;53.254;10.400;2023-05-20T13:32:45;1.13;;;1.13;;
934;SDS011;454;53.254;10.400;2023-05-20T13:35:12;1.33;;;1.33;;
934;SDS011;454;53.254;10.400;2023-05-20T13:37:40;0.87;;;0.87;;
934;SDS011;454;53.254;10.400;2023-05-20T13:40:09;2.93;;;1.50;;
934;SDS011;454;53.254;10.400;2023-05-20T13:42:37;1.10;;;1.10;;
934;SDS011;454;53.254;10.400;2023-05-20T13:45:04;1.37;;;1.27;;
934;SDS011;454;53.254;10.400;2023-05-20T13:47:31;1.40;;;1.07;;
934;SDS011;454;53.254;10.400;2023-05-20T13:49:58;1.27;;;1.27;;
934;SDS011;454;53.254;10.400;2023-05-20T13:52:25;0.90;;;0.90;;
934;SDS011;454;53.254;10.400;2023-05-20T13:54:52;0.77;;;0.77;;
934;SDS011;454;53.254;10.400;2023-05-20T13:57:20;1.33;;;1.33;;
934;SDS011;454;53.254;10.400;2023-05-20T13:59:47;1.63;;;1.50;;
934;SDS011;454;53.254;10.400;2023-05-20T14:02:14;0.93;;;0.93;;
934;SDS011;454;53.254;10.400;2023-05-20T14:04:40;1.30;;;1.20;;
934;SDS011;454;53.254;10.400;2023-05-20T14:07:09;1.10;;;1.10;;
934;SDS011;454;53.254;10.400;2023-05-20T14:09:35;0.80;;;0.80;;
934;SDS011;454;53.254;10.400;2023-05-20T14:12:02;0.97;;;0.97;;
934;SDS011;454;53.254;10.400;2023-05-20T14:14:31;1.43;;;1.43;;
934;SDS011;454;53.254;10.400;2023-05-20T14:16:58;0.80;;;0.80;;
934;SDS011;454;53.254;10.400;2023-05-20T14:19:25;0.80;;;0.80;;
934;SDS011;454;53.254;10.400;2023-05-20T14:21:52;0.80;;;0.80;;
934;SDS011;454;53.254;10.400;2023-05-20T14:24:18;0.97;;;0.97;;
934;SDS011;454;53.254;10.400;2023-05-20T14:26:45;0.70;;;0.70;;
934;SDS011;454;53.254;10.400;2023-05-20T14:29:12;1.33;;;1.13;;
934;SDS011;454;53.254;10.400;2023-05-20T14:31:40;1.00;;;1.00;;
934;SDS011;454;53.254;10.400;2023-05-20T14:34:07;1.10;;;1.10;;
934;SDS011;454;53.254;10.400;2023-05-20T14:36:34;0.63;;;0.63;;
934;SDS011;454;53.254;10.400;2023-05-20T14:39:01;0.63;;;0.63;;
934;SDS011;454;53.254;10.400;2023-05-20T14:41:27;1.27;;;1.20;;
934;SDS011;454;53.254;10.400;2023-05-20T14:43:54;1.13;;;1.13;;
934;SDS011;454;53.254;10.400;2023-05-20T14:46:21;1.53;;;1.43;;
934;SDS011;454;53.254;10.400;2023-05-20T14:48:49;0.90;;;0.90;;
934;SDS011;454;53.254;10.400;2023-05-20T14:51:16;1.00;;;1.00;;
934;SDS011;454;53.254;10.400;2023-05-20T14:53:43;1.10;;;1.10;;
934;SDS011;454;53.254;10.400;2023-05-20T14:56:10;0.67;;;0.67;;
934;SDS011;454;53.254;10.400;2023-05-20T14:58:36;0.50;;;0.50;;
934;SDS011;454;53.254;10.400;2023-05-20T15:01:03;1.70;;;0.97;;
934;SDS011;454;53.254;10.400;2023-05-20T15:03:30;1.40;;;1.30;;
934;SDS011;454;53.254;10.400;2023-05-20T15:05:58;0.90;;;0.90;;
934;SDS011;454;53.254;10.400;2023-05-20T15:08:25;0.90;;;0.90;;
934;SDS011;454;53.254;10.400;2023-05-20T15:10:52;1.50;;;0.90;;
934;SDS011;454;53.254;10.400;2023-05-20T15:13:18;1.17;;;1.17;;
934;SDS011;454;53.254;10.400;2023-05-20T15:15:45;2.20;;;2.00;;
934;SDS011;454;53.254;10.400;2023-05-20T15:18:12;1.50;;;1.40;;
934;SDS011;454;53.254;10.400;2023-05-20T15:20:39;1.07;;;1.07;;
934;SDS011;454;53.254;10.400;2023-05-20T15:23:07;2.00;;;0.90;;
934;SDS011;454;53.254;10.400;2023-05-20T15:25:34;0.90;;;0.90;;
934;SDS011;454;53.254;10.400;2023-05-20T15:28:00;1.80;;;1.80;;
934;SDS011;454;53.254;10.400;2023-05-20T15:30:27;1.20;;;1.20;;
934;SDS011;454;53.254;10.400;2023-05-20T15:32:54;0.80;;;0.80;;
934;SDS011;454;53.254;10.400;2023-05-20T15:35:21;2.40;;;1.60;;
934;SDS011;454;53.254;10.400;2023-05-20T15:37:48;1.20;;;1.10;;
934;SDS011;454;53.254;10.400;2023-05-20T15:40:16;1.13;;;1.00;;
934;SDS011;454;53.254;10.400;2023-05-20T15:42:43;0.70;;;0.70;;
934;SDS011;454;53.254;10.400;2023-05-20T15:45:11;0.97;;;0.97;;
934;SDS011;454;53.254;10.400;2023-05-20T15:47:38;1.47;;;1.37;;
934;SDS011;454;53.254;10.400;2023-05-20T15:50:05;1.80;;;1.80;;
934;SDS011;454;53.254;10.400;2023-05-20T15:52:33;1.63;;;1.43;;
934;SDS011;454;53.254;10.400;2023-05-20T15:54:59;0.83;;;0.83;;
934;SDS011;454;53.254;10.400;2023-05-20T15:57:28;2.07;;;1.93;;
934;SDS011;454;53.254;10.400;2023-05-20T15:59:55;1.67;;;1.57;;
934;SDS011;454;53.254;10.400;2023-05-20T16:02:21;1.37;;;1.37;;
934;SDS011;454;53.254;10.400;2023-05-20T16:04:48;1.87;;;1.77;;
934;SDS011;454;53.254;10.400;2023-05-20T16:07:16;1.47;;;1.47;;
934;SDS011;454;53.254;10.400;2023-05-20T16:09:43;1.90;;;1.40;;
934;SDS011;454;53.254;10.400;2023-05-20T16:12:09;1.87;;;1.87;;
934;SDS011;454;53.254;10.400;2023-05-20T16:14:38;0.80;;;0.80;;
934;SDS011;454;53.254;10.400;2023-05-20T16:17:05;1.77;;;1.77;;
934;SDS011;454;53.254;10.400;2023-05-20T16:19:31;1.20;;;1.20;;
934;SDS011;454;53.254;10.400;2023-05-20T16:21:58;2.87;;;1.97;;
934;SDS011;454;53.254;10.400;2023-05-20T16:24:25;1.47;;;1.47;;
934;SDS011;454;53.254;10.400;2023-05-20T16:26:52;1.30;;;1.30;;
934;SDS011;454;53.254;10.400;2023-05-20T16:29:19;1.30;;;1.30;;
934;SDS011;454;53.254;10.400;2023-05-20T16:31:47;1.93;;;1.80;;
934;SDS011;454;53.254;10.400;2023-05-20T16:34:14;1.20;;;1.20;;
934;SDS011;454;53.254;10.400;2023-05-20T16:36:41;1.10;;;1.10;;
934;SDS011;454;53.254;10.400;2023-05-20T16:39:09;3.10;;;1.60;;
934;SDS011;454;53.254;10.400;2023-05-20T16:41:36;1.20;;;1.20;;
934;SDS011;454;53.254;10.400;2023-05-20T16:44:02;1.80;;;1.77;;
934;SDS011;454;53.254;10.400;2023-05-20T16:46:30;1.07;;;1.07;;
934;SDS011;454;53.254;10.400;2023-05-20T16:48:58;1.70;;;1.70;;
934;SDS011;454;53.254;10.400;2023-05-20T16:51:24;2.20;;;1.63;;
934;SDS011;454;53.254;10.400;2023-05-20T16:53:51;1.50;;;1.50;;
934;SDS011;454;53.254;10.400;2023-05-20T16:56:18;2.53;;;1.20;;
934;SDS011;454;53.254;10.400;2023-05-20T16:58:45;1.13;;;1.13;;
934;SDS011;454;53.254;10.400;2023-05-20T17:01:12;2.00;;;1.90;;
934;SDS011;454;53.254;10.400;2023-05-20T17:03:39;1.77;;;1.67;;
934;SDS011;454;53.254;10.400;2023-05-20T17:06:07;1.97;;;1.87;;
934;SDS011;454;53.254;10.400;2023-05-20T17:08:34;1.50;;;1.33;;
934;SDS011;454;53.254;10.400;2023-05-20T17:11:00;1.80;;;1.77;;
934;SDS011;454;53.254;10.400;2023-05-20T17:13:27;1.80;;;1.80;;
934;SDS011;454;53.254;10.400;2023-05-20T17:15:54;2.20;;;2.00;;
934;SDS011;454;53.254;10.400;2023-05-20T17:18:21;0.90;;;0.90;;
934;SDS011;454;53.254;10.400;2023-05-20T17:20:48;1.07;;;1.07;;
934;SDS011;454;53.254;10.400;2023-05-20T17:23:16;1.97;;;1.83;;
934;SDS011;454;53.254;10.400;2023-05-20T17:25:42;1.47;;;1.47;;
934;SDS011;454;53.254;10.400;2023-05-20T17:28:09;2.97;;;2.80;;
934;SDS011;454;53.254;10.400;2023-05-20T17:30:36;1.50;;;1.40;;
934;SDS011;454;53.254;10.400;2023-05-20T17:33:02;1.30;;;1.30;;
934;SDS011;454;53.254;10.400;2023-05-20T17:35:30;1.23;;;1.23;;
934;SDS011;454;53.254;10.400;2023-05-20T17:37:56;1.23;;;1.13;;
934;SDS011;454;53.254;10.400;2023-05-20T17:40:24;1.73;;;1.73;;
934;SDS011;454;53.254;10.400;2023-05-20T17:42:51;1.23;;;1.23;;
934;SDS011;454;53.254;10.400;2023-05-20T17:45:18;2.00;;;1.90;;
934;SDS011;454;53.254;10.400;2023-05-20T17:47:44;1.70;;;1.70;;
934;SDS011;454;53.254;10.400;2023-05-20T17:50:11;1.27;;;1.27;;
934;SDS011;454;53.254;10.400;2023-05-20T17:52:38;1.50;;;1.47;;
934;SDS011;454;53.254;10.400;2023-05-20T17:55:05;1.63;;;1.63;;
934;SDS011;454;53.254;10.400;2023-05-20T17:57:35;2.33;;;2.13;;
934;SDS011;454;53.254;10.400;2023-05-20T18:00:01;1.63;;;1.63;;
934;SDS011;454;53.254;10.400;2023-05-20T18:02:30;2.00;;;1.90;;
934;SDS011;454;53.254;10.400;2023-05-20T18:04:57;1.47;;;1.47;;
934;SDS011;454;53.254;10.400;2023-05-20T18:07:24;1.50;;;1.40;;
934;SDS011;454;53.254;10.400;2023-05-20T18:09:51;1.87;;;1.73;;
934;SDS011;454;53.254;10.400;2023-05-20T18:12:18;2.87;;;2.67;;
934;SDS011;454;53.254;10.400;2023-05-20T18:14:46;2.73;;;2.40;;
934;SDS011;454;53.254;10.400;2023-05-20T18:17:13;1.57;;;1.57;;
934;SDS011;454;53.254;10.400;2023-05-20T18:19:40;1.77;;;1.67;;
934;SDS011;454;53.254;10.400;2023-05-20T18:22:06;2.17;;;2.07;;
934;SDS011;454;53.254;10.400;2023-05-20T18:24:33;3.23;;;3.00;;
934;SDS011;454;53.254;10.400;2023-05-20T18:27:00;2.00;;;1.90;;
934;SDS011;454;53.254;10.400;2023-05-20T18:29:26;2.40;;;2.23;;
934;SDS011;454;53.254;10.400;2023-05-20T18:31:55;2.33;;;2.23;;
934;SDS011;454;53.254;10.400;2023-05-20T18:34:21;1.60;;;1.60;;
934;SDS011;454;53.254;10.400;2023-05-20T18:36:48;2.07;;;2.00;;
934;SDS011;454;53.254;10.400;2023-05-20T18:39:15;1.70;;;1.60;;
934;SDS011;454;53.254;10.400;2023-05-20T18:41:44;1.70;;;1.60;;
934;SDS011;454;53.254;10.400;2023-05-20T18:44:12;1.47;;;1.40;;
934;SDS011;454;53.254;10.400;2023-05-20T18:46:39;2.53;;;2.33;;
934;SDS011;454;53.254;10.400;2023-05-20T18:49:07;1.83;;;1.80;;
934;SDS011;454;53.254;10.400;2023-05-20T18:51:35;1.70;;;1.70;;
934;SDS011;454;53.254;10.400;2023-05-20T18:54:01;1.80;;;1.80;;
934;SDS011;454;53.254;10.400;2023-05-20T18:56:28;2.80;;;2.70;;
934;SDS011;454;53.254;10.400;2023-05-20T18:58:56;2.23;;;2.07;;
934;SDS011;454;53.254;10.400;2023-05-20T19:01:23;3.73;;;2.00;;
934;SDS011;454;53.254;10.400;2023-05-20T19:03:50;2.50;;;2.30;;
934;SDS011;454;53.254;10.400;2023-05-20T19:06:18;2.00;;;1.90;;
934;SDS011;454;53.254;10.400;2023-05-20T19:08:45;1.80;;;1.70;;
934;SDS011;454;53.254;10.400;2023-05-20T19:11:13;1.37;;;1.27;;
934;SDS011;454;53.254;10.400;2023-05-20T19:13:40;1.80;;;1.73;;
934;SDS011;454;53.254;10.400;2023-05-20T19:16:06;1.67;;;1.60;;
934;SDS011;454;53.254;10.400;2023-05-20T19:18:33;2.10;;;2.00;;
934;SDS011;454;53.254;10.400;2023-05-20T19:21:00;1.93;;;1.90;;
934;SDS011;454;53.254;10.400;2023-05-20T19:23:28;1.40;;;1.30;;
934;SDS011;454;53.254;10.400;2023-05-20T19:25:56;1.80;;;1.80;;
934;SDS011;454;53.254;10.400;2023-05-20T19:28:23;2.23;;;2.13;;
934;SDS011;454;53.254;10.400;2023-05-20T19:30:49;4.90;;;2.80;;
934;SDS011;454;53.254;10.400;2023-05-20T19:33:16;2.67;;;2.50;;
934;SDS011;454;53.254;10.400;2023-05-20T19:35:43;1.70;;;1.70;;